createdAt,value
2017-07-11T00:01:58.305Z,40.27
2017-07-11T00:04:30.842Z,40.73
2017-07-11T00:07:03.117Z,43.13
2017-07-11T00:09:35.396Z,44.40
2017-07-11T00:12:07.791Z,46.43
2017-07-11T00:14:40.085Z,53.13
2017-07-11T00:17:12.521Z,47.07
2017-07-11T00:19:44.917Z,48.13
2017-07-11T00:22:17.589Z,44.10
2017-07-11T00:24:59.993Z,60.70
2017-07-11T00:27:32.207Z,48.20
2017-07-11T00:30:05.567Z,50.10
2017-07-11T00:32:37.941Z,52.00
2017-07-11T00:35:10.694Z,54.17
2017-07-11T00:37:43.080Z,51.03
2017-07-11T00:40:16.245Z,50.47
2017-07-11T00:42:48.565Z,53.47
2017-07-11T00:45:21.079Z,51.80
2017-07-11T00:47:54.698Z,47.20
2017-07-11T00:50:27.086Z,47.47
2017-07-11T00:52:59.176Z,46.90
2017-07-11T00:55:31.687Z,51.37
2017-07-11T00:58:04.016Z,47.67
2017-07-11T01:00:36.890Z,49.20
2017-07-11T01:03:08.886Z,49.63
2017-07-11T01:05:42.352Z,46.00
2017-07-11T01:08:14.694Z,46.00
2017-07-11T01:10:47.086Z,47.87
2017-07-11T01:13:19.432Z,52.10
2017-07-11T01:15:51.934Z,49.50
2017-07-11T01:18:24.150Z,47.57
2017-07-11T01:20:56.489Z,45.57
2017-07-11T01:23:28.884Z,43.63
2017-07-11T01:26:01.346Z,44.50
2017-07-11T01:28:33.542Z,38.17
2017-07-11T01:31:06.025Z,43.07
2017-07-11T01:33:38.289Z,45.67
2017-07-11T01:36:10.629Z,39.47
2017-07-11T01:38:43.057Z,36.97
2017-07-11T01:41:15.298Z,39.70
2017-07-11T01:43:47.459Z,37.23
2017-07-11T01:46:19.840Z,30.60
2017-07-11T01:48:52.226Z,30.07
2017-07-11T01:51:24.640Z,33.90
2017-07-11T01:53:57.047Z,29.00
2017-07-11T01:56:29.432Z,33.07
2017-07-11T01:59:01.933Z,28.10
2017-07-11T02:01:35.202Z,28.77
2017-07-11T02:04:07.670Z,28.93
2017-07-11T02:06:40.030Z,26.70
2017-07-11T02:09:12.347Z,30.40
2017-07-11T02:11:44.806Z,24.67
2017-07-11T02:14:17.357Z,24.43
2017-07-11T02:16:49.873Z,24.07
2017-07-11T02:19:22.148Z,27.27
2017-07-11T02:21:54.913Z,24.30
2017-07-11T02:24:26.782Z,24.03
2017-07-11T02:26:59.102Z,25.83
2017-07-11T02:29:32.201Z,27.80
2017-07-11T02:32:04.800Z,22.87
2017-07-11T02:34:37.295Z,24.87
2017-07-11T02:37:09.642Z,26.50
2017-07-11T02:39:41.967Z,29.43
2017-07-11T02:42:14.541Z,28.50
2017-07-11T02:44:46.795Z,26.70
2017-07-11T02:47:19.165Z,25.57
2017-07-11T02:49:51.548Z,27.63
2017-07-11T02:52:23.817Z,29.90
2017-07-11T02:54:56.173Z,27.17
2017-07-11T02:57:28.546Z,26.37
2017-07-11T03:00:00.872Z,29.10
2017-07-11T03:02:33.224Z,28.30
2017-07-11T03:05:05.628Z,28.97
2017-07-11T03:07:38.352Z,27.20
2017-07-11T03:10:10.414Z,33.37
2017-07-11T03:12:43.668Z,28.43
2017-07-11T03:15:16.082Z,30.07
2017-07-11T03:17:48.522Z,29.47
2017-07-11T03:20:20.874Z,33.83
2017-07-11T03:22:53.264Z,32.40
2017-07-11T03:25:25.548Z,33.50
2017-07-11T03:27:57.976Z,32.10
2017-07-11T03:30:30.353Z,36.73
2017-07-11T03:33:03.792Z,34.37
2017-07-11T03:35:36.105Z,34.30
2017-07-11T03:38:08.460Z,33.63
2017-07-11T03:40:40.712Z,37.27
2017-07-11T03:43:13.102Z,41.33
2017-07-11T03:45:45.485Z,44.80
2017-07-11T03:48:18.650Z,40.80
2017-07-11T03:50:51.193Z,45.17
2017-07-11T03:53:23.592Z,41.67
2017-07-11T03:55:56.041Z,42.20
2017-07-11T03:58:28.483Z,40.20
2017-07-11T04:01:00.864Z,44.07
2017-07-11T04:03:34.090Z,52.13
2017-07-11T04:06:06.641Z,43.63
2017-07-11T04:08:39.102Z,40.33
2017-07-11T04:11:11.536Z,44.83
2017-07-11T04:13:43.931Z,43.60
2017-07-11T04:16:16.330Z,45.57
2017-07-11T04:18:49.551Z,39.73
2017-07-11T04:21:22.016Z,43.47
2017-07-11T04:23:55.333Z,40.80
2017-07-11T04:26:27.660Z,43.57
2017-07-11T04:29:00.084Z,50.87
2017-07-11T04:31:32.428Z,42.20
2017-07-11T04:34:05.005Z,40.50
2017-07-11T04:36:37.369Z,36.60
2017-07-11T04:39:09.762Z,36.80
2017-07-11T04:41:42.209Z,33.20
2017-07-11T04:44:14.618Z,31.23
2017-07-11T04:46:46.903Z,31.50
2017-07-11T04:49:19.340Z,34.70
2017-07-11T04:51:51.626Z,35.27
2017-07-11T04:54:24.093Z,38.07
2017-07-11T04:56:56.546Z,39.07
2017-07-11T04:59:28.916Z,39.47
2017-07-11T05:02:01.359Z,41.40
2017-07-11T05:04:33.823Z,40.83
2017-07-11T05:07:06.152Z,42.97
2017-07-11T05:09:38.690Z,42.70
2017-07-11T05:12:11.013Z,39.90
2017-07-11T05:14:43.337Z,46.70
2017-07-11T05:17:15.692Z,41.77
2017-07-11T05:19:48.025Z,41.67
2017-07-11T05:22:20.401Z,42.83
2017-07-11T05:24:53.638Z,40.83
2017-07-11T05:27:25.999Z,43.63
2017-07-11T05:29:58.285Z,36.73
2017-07-11T05:32:30.733Z,37.33
2017-07-11T05:35:03.047Z,37.43
2017-07-11T05:37:35.177Z,37.23
2017-07-11T05:40:07.444Z,35.07
2017-07-11T05:42:39.815Z,35.53
2017-07-11T05:45:12.090Z,33.30
2017-07-11T05:47:44.424Z,28.63
2017-07-11T05:50:17.861Z,31.87
2017-07-11T05:52:50.205Z,28.80
2017-07-11T05:55:22.681Z,27.20
2017-07-11T05:57:55.089Z,27.73
2017-07-11T06:00:27.509Z,28.60
2017-07-11T06:02:59.897Z,26.40
2017-07-11T06:05:32.397Z,30.67
2017-07-11T06:08:04.847Z,28.37
2017-07-11T06:10:37.248Z,27.23
2017-07-11T06:13:09.544Z,29.40
2017-07-11T06:15:41.913Z,25.83
2017-07-11T06:18:14.343Z,29.97
2017-07-11T06:20:46.720Z,27.53
2017-07-11T06:23:19.108Z,29.30
2017-07-11T06:25:52.281Z,28.23
2017-07-11T06:28:24.742Z,26.20
2017-07-11T06:30:58.010Z,28.43
2017-07-11T06:33:30.621Z,25.60
2017-07-11T06:36:03.204Z,24.53
2017-07-11T06:38:35.654Z,20.63
2017-07-11T06:41:08.305Z,19.87
2017-07-11T06:43:40.381Z,18.87
2017-07-11T06:46:13.112Z,19.20
2017-07-11T06:48:45.232Z,18.97
2017-07-11T06:51:17.488Z,16.97
2017-07-11T06:53:49.960Z,16.13
2017-07-11T06:56:22.424Z,14.70
2017-07-11T06:58:54.756Z,17.00
2017-07-11T07:01:27.567Z,17.87
2017-07-11T07:03:59.613Z,18.77
2017-07-11T07:06:31.988Z,19.83
2017-07-11T07:09:04.389Z,19.93
2017-07-11T07:11:36.786Z,20.60
2017-07-11T07:14:09.341Z,20.57
2017-07-11T07:16:41.637Z,21.90
2017-07-11T07:19:13.876Z,22.03
2017-07-11T07:21:46.362Z,21.57
2017-07-11T07:24:18.768Z,21.60
2017-07-11T07:26:51.525Z,19.77
2017-07-11T07:29:24.338Z,19.53
2017-07-11T07:31:56.917Z,16.67
2017-07-11T07:34:28.885Z,17.07
2017-07-11T07:37:01.534Z,14.40
2017-07-11T07:39:33.776Z,14.50
2017-07-11T07:42:06.157Z,15.10
2017-07-11T07:44:38.667Z,14.10
2017-07-11T07:47:11.024Z,14.37
2017-07-11T07:49:43.340Z,13.83
2017-07-11T07:52:15.713Z,12.97
2017-07-11T07:54:48.116Z,11.73
2017-07-11T07:57:20.522Z,11.30
2017-07-11T07:59:52.973Z,12.67
2017-07-11T08:02:25.529Z,11.97
2017-07-11T08:04:57.958Z,11.13
2017-07-11T08:07:30.317Z,11.93
2017-07-11T08:10:02.768Z,11.60
2017-07-11T08:12:35.485Z,12.30
2017-07-11T08:15:07.450Z,13.83
2017-07-11T08:17:39.894Z,14.73
2017-07-11T08:20:12.465Z,16.10
2017-07-11T08:22:44.602Z,17.10
2017-07-11T08:25:17.013Z,18.60
2017-07-11T08:27:49.417Z,18.47
2017-07-11T08:30:21.650Z,17.43
2017-07-11T08:32:55.138Z,18.50
2017-07-11T08:35:27.472Z,17.80
2017-07-11T08:38:00.005Z,18.03
2017-07-11T08:40:32.399Z,20.17
2017-07-11T08:43:04.784Z,21.10
2017-07-11T08:45:37.069Z,20.93
2017-07-11T08:48:09.560Z,20.43
2017-07-11T08:50:41.845Z,21.00
2017-07-11T08:53:14.567Z,19.83
2017-07-11T08:55:46.777Z,21.63
2017-07-11T08:58:18.906Z,21.40
2017-07-11T09:00:51.289Z,22.40
2017-07-11T09:03:23.749Z,24.70
2017-07-11T09:05:56.244Z,22.57
2017-07-11T09:08:28.616Z,21.47
2017-07-11T09:11:00.970Z,19.50
2017-07-11T09:13:33.347Z,21.00
2017-07-11T09:16:05.721Z,14.27
2017-07-11T09:18:38.065Z,16.13
2017-07-11T09:21:10.349Z,16.53
2017-07-11T09:23:43.131Z,14.47
2017-07-11T09:26:15.202Z,14.23
2017-07-11T09:28:47.574Z,14.77
2017-07-11T09:31:19.939Z,21.20
2017-07-11T09:33:52.456Z,14.70
2017-07-11T09:36:24.901Z,17.20
2017-07-11T09:38:57.169Z,15.13
2017-07-11T09:41:29.845Z,15.37
2017-07-11T09:44:01.840Z,16.70
2017-07-11T09:46:34.193Z,16.50
2017-07-11T09:49:06.684Z,15.43
2017-07-11T09:51:39.193Z,22.70
2017-07-11T09:54:11.592Z,15.20
2017-07-11T09:56:44.248Z,17.13
2017-07-11T09:59:17.486Z,20.27
2017-07-11T10:01:49.999Z,19.20
2017-07-11T10:04:22.609Z,18.90
2017-07-11T10:06:55.025Z,18.80
2017-07-11T10:09:27.237Z,19.10
2017-07-11T10:12:00.055Z,18.07
2017-07-11T10:14:33.133Z,17.87
2017-07-11T10:17:05.489Z,19.37
2017-07-11T10:19:37.902Z,19.17
2017-07-11T10:22:10.388Z,20.40
2017-07-11T10:24:42.873Z,17.33
2017-07-11T10:27:15.229Z,21.70
2017-07-11T10:29:47.658Z,17.97
2017-07-11T10:45:25.288Z,18.73
2017-07-11T10:47:57.518Z,17.60
2017-07-11T10:50:29.733Z,18.60
2017-07-11T10:53:02.211Z,17.47
2017-07-11T10:55:34.449Z,21.10
2017-07-11T10:58:07.033Z,16.73
2017-07-11T11:00:39.891Z,17.90
2017-07-11T11:03:12.613Z,16.63
2017-07-11T11:05:46.036Z,18.87
2017-07-11T11:08:18.544Z,16.77
2017-07-11T11:10:51.053Z,16.13
2017-07-11T11:13:23.406Z,18.83
2017-07-11T11:15:55.717Z,18.43
2017-07-11T11:18:28.281Z,16.03
2017-07-11T11:21:00.473Z,17.67
2017-07-11T11:23:32.934Z,18.03
2017-07-11T11:26:05.339Z,19.20
2017-07-11T11:28:38.593Z,17.23
2017-07-11T11:31:11.115Z,18.40
2017-07-11T11:33:43.766Z,18.23
2017-07-11T11:36:15.945Z,17.60
2017-07-11T11:38:48.513Z,21.13
2017-07-11T11:41:20.684Z,20.63
2017-07-11T11:43:53.363Z,20.27
2017-07-11T11:46:25.938Z,21.03
2017-07-11T11:48:57.982Z,17.10
2017-07-11T11:51:30.352Z,19.80
2017-07-11T11:54:03.085Z,19.50
2017-07-11T11:56:35.792Z,19.97
2017-07-11T11:59:08.730Z,20.43
2017-07-11T12:01:41.054Z,17.30
2017-07-11T12:04:13.244Z,19.00
2017-07-11T12:06:45.584Z,18.97
2017-07-11T12:09:17.914Z,18.33
2017-07-11T12:11:50.301Z,20.20
2017-07-11T12:14:22.636Z,20.50
2017-07-11T12:16:54.973Z,18.90
2017-07-11T12:19:27.325Z,18.63
2017-07-11T12:21:59.669Z,18.57
2017-07-11T12:24:32.040Z,21.53
2017-07-11T12:27:04.413Z,21.43
2017-07-11T12:29:36.838Z,19.47
2017-07-11T12:32:09.192Z,20.33
2017-07-11T12:34:41.421Z,20.43
2017-07-11T12:37:13.862Z,20.47
2017-07-11T12:39:46.341Z,20.43
2017-07-11T12:42:18.692Z,21.10
2017-07-11T12:44:51.945Z,20.13
2017-07-11T12:47:24.429Z,20.77
2017-07-11T12:49:56.844Z,20.27
2017-07-11T12:52:29.321Z,21.10
2017-07-11T12:55:01.721Z,19.60
2017-07-11T12:57:34.120Z,17.97
2017-07-11T13:00:06.639Z,18.47
2017-07-11T13:02:39.060Z,15.00
2017-07-11T13:05:11.446Z,16.00
2017-07-11T13:07:43.786Z,15.70
2017-07-11T13:10:17.437Z,15.70
2017-07-11T13:12:49.492Z,13.20
2017-07-11T13:15:21.901Z,13.53
2017-07-11T13:17:54.258Z,14.50
2017-07-11T13:20:26.693Z,10.97
2017-07-11T13:22:59.015Z,9.93
2017-07-11T13:25:31.292Z,10.17
2017-07-11T13:28:03.641Z,11.60
2017-07-11T13:30:35.953Z,10.83
2017-07-11T13:33:08.380Z,10.80
2017-07-11T13:35:40.784Z,9.80
2017-07-11T13:38:13.808Z,10.10
2017-07-11T13:40:46.545Z,11.93
2017-07-11T13:43:18.858Z,10.23
2017-07-11T13:45:52.098Z,10.97
2017-07-11T13:48:24.573Z,10.77
2017-07-11T13:50:56.913Z,10.63
2017-07-11T13:53:29.432Z,10.97
2017-07-11T13:56:01.916Z,11.27
2017-07-11T13:58:34.276Z,10.57
2017-07-11T14:01:06.801Z,11.00
2017-07-11T14:03:39.254Z,11.03
2017-07-11T14:06:11.730Z,9.50
2017-07-11T14:08:44.170Z,10.13
2017-07-11T14:11:16.614Z,10.03
2017-07-11T14:13:49.036Z,8.63
2017-07-11T14:16:21.425Z,9.57
2017-07-11T14:18:53.894Z,9.67
2017-07-11T14:21:26.194Z,9.00
2017-07-11T14:23:58.620Z,8.77
2017-07-11T14:26:31.126Z,7.57
2017-07-11T14:29:03.480Z,6.37
2017-07-11T14:31:35.876Z,6.70
2017-07-11T14:34:08.214Z,6.23
2017-07-11T14:36:40.625Z,5.90
2017-07-11T14:39:12.955Z,6.20
2017-07-11T14:41:46.192Z,8.27
2017-07-11T14:44:18.669Z,5.90
2017-07-11T14:46:52.032Z,5.40
2017-07-11T14:49:25.366Z,5.83
2017-07-11T14:51:57.969Z,6.20
2017-07-11T14:54:30.310Z,6.00
2017-07-11T14:57:02.762Z,6.10
2017-07-11T14:59:35.194Z,5.30
2017-07-11T15:02:07.513Z,5.73
2017-07-11T15:04:39.977Z,5.47
2017-07-11T15:07:12.594Z,5.30
2017-07-11T15:09:45.071Z,5.30
2017-07-11T15:12:17.523Z,7.20
2017-07-11T15:14:50.021Z,5.70
2017-07-11T15:17:22.657Z,5.40
2017-07-11T15:19:54.728Z,4.50
2017-07-11T15:22:27.212Z,5.10
2017-07-11T15:24:59.674Z,6.20
2017-07-11T15:27:32.105Z,8.77
2017-07-11T15:30:04.930Z,8.37
2017-07-11T15:32:37.034Z,8.50
2017-07-11T15:35:09.413Z,9.07
2017-07-11T15:37:42.058Z,10.30
2017-07-11T15:40:14.036Z,12.33
2017-07-11T15:42:47.490Z,11.17
2017-07-11T15:45:19.873Z,11.90
2017-07-11T15:47:52.227Z,10.33
2017-07-11T15:50:24.548Z,11.10
2017-07-11T15:52:56.933Z,11.60
2017-07-11T15:55:29.181Z,12.83
2017-07-11T15:58:01.458Z,10.80
2017-07-11T16:00:33.923Z,12.13
2017-07-11T16:03:06.380Z,12.00
2017-07-11T16:05:39.380Z,12.57
2017-07-11T16:08:12.823Z,11.70
2017-07-11T16:10:45.452Z,11.60
2017-07-11T16:13:17.946Z,11.90
2017-07-11T16:15:50.214Z,13.77
2017-07-11T16:18:22.738Z,11.90
2017-07-11T16:20:55.082Z,11.83
2017-07-11T16:23:28.180Z,12.37
2017-07-11T16:26:00.788Z,12.30
2017-07-11T16:28:33.209Z,11.83
2017-07-11T16:31:05.559Z,12.53
2017-07-11T16:33:38.029Z,14.17
2017-07-11T16:36:11.549Z,12.73
2017-07-11T16:38:43.757Z,12.80
2017-07-11T16:41:16.158Z,13.77
2017-07-11T16:43:48.536Z,14.10
2017-07-11T16:46:20.931Z,13.10
2017-07-11T16:48:53.385Z,13.83
2017-07-11T18:13:35.438Z,12.43
2017-07-11T18:16:07.832Z,11.30
2017-07-11T18:18:40.251Z,11.17
2017-07-11T18:21:12.622Z,13.17
2017-07-11T18:23:46.055Z,14.23
2017-07-11T18:26:18.609Z,13.40
2017-07-11T18:28:51.077Z,15.73
2017-07-11T18:31:23.381Z,14.80
2017-07-11T18:33:55.652Z,14.10
2017-07-11T18:36:28.017Z,14.43
2017-07-11T18:39:00.401Z,14.57
2017-07-11T18:41:32.682Z,14.80
2017-07-11T18:44:05.084Z,14.60
2017-07-11T18:46:37.539Z,13.97
2017-07-11T18:49:18.070Z,14.80
2017-07-11T18:51:50.500Z,15.87
2017-07-11T18:54:23.020Z,14.80
2017-07-11T18:56:57.296Z,15.10
2017-07-11T18:59:30.007Z,15.50
2017-07-11T19:02:02.110Z,14.40
2017-07-11T19:04:34.500Z,14.27
2017-07-11T19:07:07.009Z,15.30
2017-07-11T19:09:39.395Z,16.37
2017-07-11T19:12:11.784Z,14.83
2017-07-11T19:14:46.033Z,16.47
2017-07-11T19:17:18.452Z,15.90
2017-07-11T19:19:50.772Z,16.10
2017-07-11T19:22:23.269Z,16.20
2017-07-11T19:24:55.444Z,16.30
2017-07-11T19:27:27.669Z,16.93
2017-07-11T19:30:00.389Z,16.60
2017-07-11T19:32:32.692Z,16.83
2017-07-11T19:35:05.235Z,18.27
2017-07-11T19:37:38.522Z,16.83
2017-07-11T19:40:10.850Z,18.27
2017-07-11T19:42:43.206Z,16.00
2017-07-11T19:45:15.624Z,16.87
2017-07-11T19:47:47.952Z,17.80
2017-07-11T19:50:20.217Z,16.27
2017-07-11T19:52:52.493Z,17.30
2017-07-11T19:55:26.027Z,17.33
2017-07-11T19:57:58.490Z,17.33
2017-07-11T20:00:30.636Z,16.60
2017-07-11T20:03:03.031Z,15.63
2017-07-11T20:05:35.364Z,15.67
2017-07-11T20:08:07.670Z,16.43
2017-07-11T20:10:40.005Z,14.67
2017-07-11T20:13:13.386Z,16.07
2017-07-11T20:15:46.077Z,14.20
2017-07-11T20:18:18.395Z,14.30
2017-07-11T20:20:50.884Z,14.60
2017-07-11T20:23:23.224Z,14.80
2017-07-11T20:25:55.564Z,13.10
2017-07-11T20:28:27.905Z,14.37
2017-07-11T20:31:00.672Z,12.80
2017-07-11T20:33:32.644Z,14.40
2017-07-11T20:36:05.372Z,13.90
2017-07-11T20:38:37.849Z,13.60
2017-07-11T20:41:09.987Z,14.20
2017-07-11T20:43:42.569Z,15.13
2017-07-11T20:46:14.671Z,13.70
2017-07-11T20:48:47.080Z,14.17
2017-07-11T20:51:20.665Z,13.57
2017-07-11T20:53:53.270Z,14.63
2017-07-11T20:56:26.509Z,14.57
2017-07-11T20:58:59.201Z,13.63
2017-07-11T21:01:31.537Z,13.50
2017-07-11T21:04:03.792Z,14.23
2017-07-11T21:06:42.953Z,13.90
2017-07-11T21:09:15.604Z,13.67
2017-07-11T21:11:48.377Z,14.07
2017-07-11T21:14:20.438Z,13.43
2017-07-11T21:16:52.837Z,14.70
2017-07-11T21:19:25.205Z,14.53
2017-07-11T21:21:57.778Z,15.27
2017-07-11T21:24:30.131Z,15.27
2017-07-11T21:27:02.697Z,13.33
2017-07-11T21:29:34.933Z,14.20
2017-07-11T21:32:07.772Z,14.43
2017-07-11T21:34:39.681Z,15.50
2017-07-11T21:37:12.020Z,15.03
2017-07-11T21:39:44.461Z,14.20
2017-07-11T21:42:16.956Z,14.27
2017-07-11T21:44:49.327Z,12.83
2017-07-11T21:47:21.758Z,14.57
2017-07-11T21:49:54.589Z,13.67
2017-07-11T21:52:26.609Z,13.03
2017-07-11T21:54:58.988Z,13.30
2017-07-11T21:57:31.371Z,14.17
2017-07-11T22:00:03.785Z,13.73
2017-07-11T22:02:36.160Z,13.10
2017-07-11T22:05:08.727Z,11.73
2017-07-11T22:07:42.054Z,12.17
2017-07-11T22:10:14.493Z,12.80
2017-07-11T22:12:46.922Z,11.77
2017-07-11T22:15:19.356Z,11.50
2017-07-11T22:17:52.356Z,12.43
2017-07-11T22:20:24.232Z,13.00
2017-07-11T22:22:56.830Z,12.70
2017-07-11T22:25:29.150Z,13.50
2017-07-11T22:28:01.473Z,11.77
2017-07-11T22:30:34.200Z,13.03
2017-07-11T22:33:06.295Z,12.70
2017-07-11T22:35:38.729Z,13.47
2017-07-11T22:38:11.422Z,11.97
2017-07-11T22:40:45.186Z,12.30
2017-07-11T22:43:17.024Z,12.73
2017-07-11T22:45:49.458Z,12.03
2017-07-11T22:48:21.807Z,11.23
2017-07-11T22:50:54.140Z,11.90
2017-07-11T22:53:26.546Z,10.57
2017-07-11T22:55:58.909Z,11.00
2017-07-11T22:58:31.368Z,11.50
2017-07-11T23:01:04.588Z,12.40
2017-07-11T23:03:37.228Z,11.20
2017-07-11T23:06:09.993Z,11.33
2017-07-11T23:08:43.017Z,10.97
2017-07-11T23:11:15.438Z,11.87
2017-07-11T23:13:47.900Z,12.10
2017-07-11T23:16:20.216Z,12.00
2017-07-11T23:18:52.716Z,12.00
2017-07-11T23:21:24.898Z,10.97
2017-07-11T23:23:57.397Z,11.03
2017-07-11T23:26:29.617Z,12.23
2017-07-11T23:29:01.965Z,12.00
2017-07-11T23:31:34.419Z,11.20
2017-07-11T23:34:06.845Z,12.40
2017-07-11T23:36:39.189Z,11.80
2017-07-11T23:39:11.573Z,11.30
2017-07-11T23:41:43.998Z,12.60
2017-07-11T23:44:16.340Z,13.43
2017-07-11T23:46:48.765Z,12.50
2017-07-11T23:49:21.094Z,12.00
2017-07-11T23:51:53.548Z,12.83
2017-07-11T23:54:25.976Z,12.70
2017-07-11T23:56:58.396Z,14.00
2017-07-11T23:59:30.769Z,15.10
